Terminal Aerodrome Forecast
Issued by NWS Wakefield, VA

Home | Current Version | Previous Version | Text Only | Print | Product List | Glossary On
Versions: 1 2 3 4 5 6 7 8 9 10 11 12 13 14 15 16
000
FTUS41 KAKQ 291100
TAFORF
TAF
KORF 291137Z 2912/3012 08006KT P6SM BKN050
     FM291700 06010KT P6SM SCT050
     FM292200 08008KT P6SM BKN050
     FM300300 10006KT P6SM BKN030=

USA.gov is the U.S. government's official web portal to all federal, state and local government web resources and services.